Wilkes Barre Scranton International Airport
KAVP : now visible

Airfield :











YOU CAN JOIN US ON...

 
LOGIN :

Register | Disclaimer

   EN    FR    IT 

 









Legend :    VFR   Marginal VFR   IFR   Intensive IFR   Very Intensive IFR
Visi :
Ceiling :
>= 8 km
>= 3000ft
5 to 8 km
1000 to 3000 ft
1500m to 5 km
500 to 1000 ft
800 to 1500m
200 to 500 ft
< 800m
< 200 ft
Symbols :   Thunderstorms  Fog  Heavy snow  Heavy precipitations  Wind > 20 kt






- Airport Elevation : 962 ft
- IATA code : AVP


KAVP - Wilkes Barre Scranton International

CURRENT METAR :
  • 120154Z 29010G17KT 10SM OVC055 M01/M12 A3038 RMK AO2 SLP296 T10111117

EXPIRED METARs :
  • 120054Z 26013KT 10SM BKN065 M02/M12 A3036 RMK AO2 SLP291 T10171117
  • 112354Z 25016KT 10SM CLR M01/M12 A3034 RMK AO2 SLP284 T10111122 10022 21011 53033

TAF KAVP
Valid from the 12 at 00:00 until the 13 at 00:00 UTC


112328Z 1200/1224 24010G18KT P6SM FEW045
FM120400 31008KT P6SM SKC



MET'MAP, your aeronautical weather chart ! - Copyright ORBIFLY December 2007 - Disclaimer

ORBIFLY MET'MAP TEAM :

Programming & Development : Alexandra Zaïnal
Concept & original design : Baudouin d'Aumeries
Assistance for programming : Marc-Olivier Méhu
Technical & hardware support : Manuel Goepfert

Contact : metmap@orbifly.com




SOURCES & CREDITS :

   NOAA       Earth
Advisory